createdAt,value
2023-02-13T00:01:09.506Z,26.27
2023-02-13T00:03:36.409Z,27.40
2023-02-13T00:06:03.482Z,27.95
2023-02-13T00:08:30.216Z,30.05
2023-02-13T00:10:57.158Z,30.23
2023-02-13T00:13:24.134Z,35.95
2023-02-13T00:15:51.201Z,34.75
2023-02-13T00:18:18.138Z,30.48
2023-02-13T00:20:45.167Z,32.70
2023-02-13T00:23:12.195Z,35.42
2023-02-13T00:25:38.842Z,34.03
2023-02-13T00:28:05.479Z,34.80
2023-02-13T00:30:32.214Z,30.85
2023-02-13T00:32:58.909Z,31.75
2023-02-13T00:35:25.922Z,28.52
2023-02-13T00:37:52.968Z,30.33
2023-02-13T00:40:19.692Z,25.98
2023-02-13T00:42:46.327Z,27.50
2023-02-13T00:45:13.050Z,27.15
2023-02-13T00:47:39.761Z,24.42
2023-02-13T00:50:06.744Z,25.13
2023-02-13T00:52:33.937Z,25.58
2023-02-13T00:55:00.892Z,27.50
2023-02-13T00:57:27.907Z,27.65
2023-02-13T00:59:54.975Z,25.17
2023-02-13T01:02:21.991Z,25.88
2023-02-13T01:04:48.672Z,25.08
2023-02-13T01:07:16.689Z,24.98
2023-02-13T01:09:44.220Z,25.13
2023-02-13T01:12:11.056Z,22.55
2023-02-13T01:14:37.885Z,23.83
2023-02-13T01:17:04.991Z,25.15
2023-02-13T01:19:32.085Z,22.63
2023-02-13T01:21:59.107Z,25.02
2023-02-13T01:24:30.282Z,25.48
2023-02-13T01:26:57.400Z,22.65
2023-02-13T01:29:24.388Z,22.00
2023-02-13T01:31:51.153Z,20.88
2023-02-13T01:34:18.334Z,22.17
2023-02-13T01:36:45.403Z,20.63
2023-02-13T01:39:12.594Z,21.50
2023-02-13T01:41:39.550Z,19.05
2023-02-13T01:44:06.203Z,22.13
2023-02-13T01:46:32.903Z,19.40
2023-02-13T01:48:59.568Z,19.60
2023-02-13T01:51:26.323Z,21.13
2023-02-13T01:53:53.751Z,21.33
2023-02-13T01:56:20.420Z,18.15
2023-02-13T01:58:47.141Z,16.70
2023-02-13T02:01:13.886Z,23.70
2023-02-13T02:03:40.519Z,19.27
2023-02-13T02:06:07.175Z,19.48
2023-02-13T02:08:33.876Z,18.25
2023-02-13T02:11:00.958Z,18.17
2023-02-13T02:13:27.867Z,18.33
2023-02-13T02:15:54.719Z,17.70
2023-02-13T02:18:21.665Z,18.27
2023-02-13T02:20:48.874Z,20.85
2023-02-13T02:23:15.836Z,17.73
2023-02-13T02:25:42.629Z,20.08
2023-02-13T02:28:09.747Z,19.95
2023-02-13T02:30:36.865Z,20.83
2023-02-13T02:33:03.904Z,18.17
2023-02-13T02:35:31.066Z,18.95
2023-02-13T02:37:58.091Z,19.60
2023-02-13T02:40:25.620Z,18.73
2023-02-13T02:42:52.455Z,17.35
2023-02-13T02:45:19.115Z,19.92
2023-02-13T02:48:04.889Z,21.63
2023-02-13T02:50:31.929Z,17.50
2023-02-13T02:52:58.971Z,19.92
2023-02-13T02:55:25.630Z,18.08
2023-02-13T02:58:11.060Z,20.65
2023-02-13T03:00:57.034Z,17.27
2023-02-13T03:03:42.507Z,22.63
2023-02-13T03:06:12.189Z,20.48
2023-02-13T03:08:57.540Z,19.35
2023-02-13T03:11:42.927Z,24.70
2023-02-13T03:14:09.809Z,19.45
2023-02-13T03:16:55.467Z,21.30
2023-02-13T03:19:40.967Z,22.08
2023-02-13T03:22:20.556Z,20.58
2023-02-13T03:24:47.611Z,19.63
2023-02-13T03:27:14.611Z,20.45
2023-02-13T03:30:04.965Z,22.50
2023-02-13T03:32:31.635Z,23.15
2023-02-13T03:35:17.277Z,20.75
2023-02-13T03:37:56.199Z,19.55
2023-02-13T03:40:23.284Z,20.15
2023-02-13T03:42:50.075Z,17.80
2023-02-13T03:45:35.545Z,20.23
2023-02-13T03:48:10.117Z,18.75
2023-02-13T03:50:37.290Z,21.52
2023-02-13T03:53:04.298Z,20.30
2023-02-13T03:55:49.857Z,21.60
2023-02-13T03:58:35.163Z,18.92
2023-02-13T04:01:02.768Z,20.90
2023-02-13T04:03:29.817Z,21.15
2023-02-13T04:05:56.420Z,20.00
2023-02-13T04:08:23.486Z,21.35
2023-02-13T04:10:50.403Z,20.05
2023-02-13T04:13:17.248Z,18.95
2023-02-13T04:15:44.164Z,17.52
2023-02-13T04:18:11.052Z,18.52
2023-02-13T04:20:37.723Z,23.90
2023-02-13T04:23:04.372Z,17.67
2023-02-13T04:25:31.255Z,20.05
2023-02-13T04:27:58.249Z,18.52
2023-02-13T04:30:25.283Z,20.83
2023-02-13T04:32:53.333Z,18.35
2023-02-13T04:35:20.127Z,19.88
2023-02-13T04:37:47.195Z,19.67
2023-02-13T04:40:14.035Z,16.60
2023-02-13T04:42:40.946Z,18.45
2023-02-13T04:45:08.025Z,18.80
2023-02-13T04:47:34.965Z,20.80
2023-02-13T04:50:02.129Z,22.75
2023-02-13T04:52:29.221Z,14.15
2023-02-13T04:54:56.262Z,18.33
2023-02-13T04:57:22.878Z,21.38
2023-02-13T04:59:49.544Z,18.45
2023-02-13T05:02:16.348Z,19.17
2023-02-13T05:04:43.324Z,18.05
2023-02-13T05:07:10.371Z,20.35
2023-02-13T05:09:36.978Z,20.55
2023-02-13T05:12:03.917Z,16.95
2023-02-13T05:14:31.149Z,17.50
2023-02-13T05:16:57.930Z,17.17
2023-02-13T05:19:24.969Z,18.08
2023-02-13T05:22:10.732Z,19.30
2023-02-13T05:24:37.850Z,15.85
2023-02-13T05:27:04.939Z,16.98
2023-02-13T05:29:34.844Z,19.52
2023-02-13T05:32:01.601Z,19.77
2023-02-13T05:34:28.537Z,20.15
2023-02-13T05:36:55.379Z,18.88
2023-02-13T05:39:22.576Z,22.25
2023-02-13T05:41:49.879Z,22.10
2023-02-13T05:44:16.894Z,20.65
2023-02-13T05:46:45.248Z,18.90
2023-02-13T05:49:12.453Z,21.35
2023-02-13T05:51:39.633Z,23.80
2023-02-13T05:54:06.564Z,18.00
2023-02-13T05:56:33.303Z,19.63
2023-02-13T05:59:00.030Z,18.00
2023-02-13T06:01:27.164Z,15.48
2023-02-13T06:03:54.395Z,18.90
2023-02-13T06:06:23.090Z,19.33
2023-02-13T06:08:50.265Z,16.73
2023-02-13T06:11:17.214Z,22.17
2023-02-13T06:13:43.999Z,19.83
2023-02-13T06:16:11.030Z,18.58
2023-02-13T06:18:37.936Z,24.25
2023-02-13T06:21:05.046Z,21.95
2023-02-13T06:23:32.068Z,23.00
2023-02-13T06:25:59.180Z,20.48
2023-02-13T06:28:26.383Z,22.73
2023-02-13T06:30:53.832Z,22.25
2023-02-13T06:33:20.620Z,22.52
2023-02-13T06:35:47.640Z,24.67
2023-02-13T06:38:17.497Z,17.77
2023-02-13T06:40:44.649Z,22.30
2023-02-13T06:43:11.793Z,27.85
2023-02-13T06:45:38.880Z,24.98
2023-02-13T06:48:05.506Z,21.85
2023-02-13T06:50:32.146Z,21.45
2023-02-13T06:52:59.320Z,22.50
2023-02-13T06:55:29.428Z,22.38
2023-02-13T06:57:56.541Z,25.92
2023-02-13T07:00:26.191Z,28.10
2023-02-13T07:02:54.237Z,22.00
2023-02-13T07:05:23.830Z,27.85
2023-02-13T07:07:51.103Z,22.60
2023-02-13T07:10:18.777Z,18.55
2023-02-13T07:12:56.804Z,23.60
2023-02-13T07:15:30.500Z,24.00
2023-02-13T07:17:57.704Z,22.52
2023-02-13T07:20:24.536Z,26.48
2023-02-13T07:22:51.738Z,24.20
2023-02-13T07:25:18.873Z,20.77
2023-02-13T07:27:46.135Z,26.15
2023-02-13T07:30:13.376Z,21.23
2023-02-13T07:32:41.034Z,23.42
2023-02-13T07:35:08.140Z,24.58
2023-02-13T07:37:34.813Z,27.35
2023-02-13T07:40:01.810Z,25.30
2023-02-13T07:42:28.809Z,23.98
2023-02-13T07:44:55.939Z,29.95
2023-02-13T07:47:23.011Z,27.23
2023-02-13T07:49:49.971Z,31.95
2023-02-13T07:52:17.471Z,27.13
2023-02-13T07:54:47.838Z,28.98
2023-02-13T07:57:15.060Z,28.40
2023-02-13T07:59:41.884Z,28.20
2023-02-13T08:02:14.464Z,26.17
2023-02-13T08:04:41.725Z,27.00
2023-02-13T08:07:08.861Z,24.40
2023-02-13T08:09:56.329Z,25.65
2023-02-13T08:12:30.752Z,26.90
2023-02-13T08:14:58.031Z,25.65
2023-02-13T08:17:25.078Z,32.28
2023-02-13T08:19:52.240Z,28.92
2023-02-13T08:22:19.335Z,25.15
2023-02-13T08:24:46.062Z,26.00
2023-02-13T08:27:13.259Z,26.15
2023-02-13T08:29:40.492Z,28.50
2023-02-13T08:32:07.672Z,30.85
2023-02-13T08:34:34.683Z,26.98
2023-02-13T08:37:01.785Z,33.00
2023-02-13T08:39:28.835Z,26.85
2023-02-13T08:41:55.869Z,25.00
2023-02-13T08:44:22.995Z,31.35
2023-02-13T08:46:50.081Z,32.60
2023-02-13T08:49:17.328Z,29.13
2023-02-13T08:51:44.375Z,28.13
2023-02-13T08:54:11.335Z,29.70
2023-02-13T08:56:38.167Z,27.10
2023-02-13T08:59:08.351Z,27.30
2023-02-13T09:01:35.463Z,28.60
2023-02-13T09:04:02.650Z,34.92
2023-02-13T09:06:29.429Z,29.77
2023-02-13T09:08:56.165Z,30.38
2023-02-13T09:11:23.643Z,29.88
2023-02-13T09:13:50.967Z,28.85
2023-02-13T09:16:18.138Z,26.50
2023-02-13T09:18:45.124Z,26.80
2023-02-13T09:21:11.992Z,29.25
2023-02-13T09:23:39.171Z,26.95
2023-02-13T09:26:05.916Z,24.98
2023-02-13T09:28:32.639Z,28.02
2023-02-13T09:31:00.156Z,26.95
2023-02-13T09:33:33.678Z,30.17
2023-02-13T09:36:00.789Z,30.02
2023-02-13T09:38:30.921Z,28.13
2023-02-13T09:40:58.077Z,26.08
2023-02-13T09:43:25.017Z,23.08
2023-02-13T09:45:52.170Z,24.20
2023-02-13T09:48:19.439Z,23.58
2023-02-13T09:50:46.547Z,25.42
2023-02-13T09:53:13.792Z,22.60
2023-02-13T09:55:40.876Z,23.67
2023-02-13T09:58:07.591Z,23.38
2023-02-13T10:00:34.993Z,20.15
2023-02-13T10:03:02.020Z,20.23
2023-02-13T10:05:29.468Z,18.33
2023-02-13T10:07:56.649Z,21.45
2023-02-13T10:10:23.819Z,18.08
2023-02-13T10:12:51.003Z,18.08
2023-02-13T10:15:18.180Z,24.50
2023-02-13T10:17:45.131Z,21.63
2023-02-13T10:20:12.184Z,17.30
2023-02-13T10:22:38.997Z,19.08
2023-02-13T10:25:06.099Z,21.20
2023-02-13T10:27:33.013Z,19.75
2023-02-13T10:30:06.685Z,19.30
2023-02-13T10:32:33.744Z,18.45
2023-02-13T10:35:00.723Z,23.10
2023-02-13T10:37:28.075Z,20.40
2023-02-13T10:39:55.125Z,22.60
2023-02-13T10:42:24.912Z,18.83
2023-02-13T10:44:51.837Z,22.23
2023-02-13T10:47:18.931Z,20.13
2023-02-13T10:49:45.953Z,15.75
2023-02-13T10:52:13.031Z,19.02
2023-02-13T10:54:39.769Z,17.42
2023-02-13T10:57:06.825Z,19.15
2023-02-13T10:59:33.950Z,17.40
2023-02-13T11:02:01.072Z,19.83
2023-02-13T11:04:28.298Z,18.55
2023-02-13T11:06:55.368Z,16.90
2023-02-13T11:09:22.013Z,18.10
2023-02-13T11:11:48.865Z,16.10
2023-02-13T11:14:15.640Z,16.13
2023-02-13T11:16:42.452Z,14.90
2023-02-13T11:19:09.246Z,16.88
2023-02-13T11:21:37.319Z,14.30
2023-02-13T11:24:04.087Z,14.52
2023-02-13T11:26:31.251Z,16.75
2023-02-13T11:28:58.376Z,18.00
2023-02-13T11:31:25.171Z,16.17
2023-02-13T11:33:52.062Z,15.35
2023-02-13T11:36:19.782Z,16.75
2023-02-13T11:38:46.717Z,18.45
2023-02-13T11:41:13.554Z,16.85
2023-02-13T11:43:40.379Z,16.33
2023-02-13T11:46:07.303Z,17.42
2023-02-13T11:48:34.072Z,17.98
2023-02-13T11:51:00.786Z,17.73
2023-02-13T11:53:27.509Z,17.40
2023-02-13T11:55:54.191Z,17.85
2023-02-13T11:58:20.854Z,17.67
2023-02-13T12:00:47.654Z,16.88
2023-02-13T12:03:14.534Z,17.77
2023-02-13T12:05:41.329Z,17.25
2023-02-13T12:08:07.951Z,17.58
2023-02-13T12:10:34.684Z,15.98
2023-02-13T12:13:01.466Z,18.30
2023-02-13T12:15:28.370Z,17.27
2023-02-13T12:17:55.130Z,18.55
2023-02-13T12:20:21.897Z,18.55
2023-02-13T12:22:48.586Z,22.02
2023-02-13T12:25:15.284Z,19.58
2023-02-13T12:27:43.118Z,18.40
2023-02-13T12:30:10.140Z,17.85
2023-02-13T12:32:36.821Z,19.10
2023-02-13T12:35:03.710Z,18.45
2023-02-13T12:37:30.456Z,20.30
2023-02-13T12:39:57.132Z,16.23
2023-02-13T12:42:23.841Z,19.02
2023-02-13T12:44:50.642Z,19.75
2023-02-13T12:47:17.267Z,20.73
2023-02-13T12:49:43.984Z,19.33
2023-02-13T12:52:10.694Z,22.20
2023-02-13T12:54:37.540Z,19.55
2023-02-13T12:57:04.216Z,22.90
2023-02-13T12:59:30.912Z,21.15
2023-02-13T13:01:58.179Z,27.98
2023-02-13T13:04:25.417Z,18.83
2023-02-13T13:06:52.694Z,16.63
2023-02-13T13:09:19.427Z,21.25
2023-02-13T13:11:46.052Z,18.08
2023-02-13T13:14:12.713Z,18.25
2023-02-13T13:16:43.028Z,15.73
2023-02-13T13:19:09.802Z,17.53
2023-02-13T13:21:36.558Z,17.38
2023-02-13T13:24:03.220Z,16.90
2023-02-13T13:26:32.208Z,19.40
2023-02-13T13:28:58.872Z,20.73
2023-02-13T13:31:26.503Z,19.42
2023-02-13T13:33:53.461Z,20.70
2023-02-13T13:36:20.180Z,19.42
2023-02-13T13:38:47.164Z,16.60
2023-02-13T13:41:13.847Z,15.88
2023-02-13T13:43:40.548Z,16.77
2023-02-13T13:46:07.320Z,16.42
2023-02-13T13:48:34.125Z,14.52
2023-02-13T13:51:00.892Z,16.50
2023-02-13T13:53:27.697Z,15.85
2023-02-13T13:55:56.409Z,17.05
2023-02-13T13:58:23.245Z,16.40
2023-02-13T14:00:49.903Z,18.40
2023-02-13T14:03:16.711Z,17.92
2023-02-13T14:05:43.516Z,21.33
2023-02-13T14:08:10.207Z,18.52
2023-02-13T14:10:38.362Z,15.90
2023-02-13T14:13:07.864Z,14.18
2023-02-13T14:15:34.976Z,14.23
2023-02-13T14:18:01.732Z,16.55
2023-02-13T14:20:28.421Z,13.40
2023-02-13T14:22:55.675Z,16.83
2023-02-13T14:25:22.364Z,15.35
2023-02-13T14:27:49.058Z,15.23
2023-02-13T14:30:16.092Z,14.52
2023-02-13T14:32:42.991Z,14.80
2023-02-13T14:35:10.171Z,15.48
2023-02-13T14:37:36.926Z,19.55
2023-02-13T14:40:05.557Z,17.15
2023-02-13T14:42:32.663Z,24.95
2023-02-13T14:44:59.435Z,17.55
2023-02-13T14:47:26.764Z,17.30
2023-02-13T14:49:54.074Z,17.70
2023-02-13T14:52:26.440Z,18.58
2023-02-13T14:54:53.770Z,15.88
2023-02-13T14:57:21.039Z,16.63
2023-02-13T14:59:48.216Z,19.40
2023-02-13T15:02:15.375Z,21.08
2023-02-13T15:04:42.573Z,19.98
2023-02-13T15:07:09.762Z,15.75
2023-02-13T15:09:38.885Z,16.25
2023-02-13T15:12:06.063Z,16.88
2023-02-13T15:14:33.590Z,18.42
2023-02-13T15:17:00.919Z,18.17
2023-02-13T15:19:28.511Z,18.48
2023-02-13T15:21:55.228Z,17.15
2023-02-13T15:24:23.144Z,18.27
2023-02-13T15:26:50.399Z,19.13
2023-02-13T15:29:26.670Z,17.67
2023-02-13T15:31:56.736Z,18.17
2023-02-13T15:34:23.449Z,20.48
2023-02-13T15:36:50.131Z,18.30
2023-02-13T15:39:18.637Z,15.70
2023-02-13T15:41:46.429Z,17.92
2023-02-13T15:44:13.040Z,16.42
2023-02-13T15:46:39.812Z,17.08
2023-02-13T15:49:06.596Z,17.58
2023-02-13T15:51:34.846Z,18.60
2023-02-13T15:54:01.643Z,18.08
2023-02-13T15:56:28.457Z,19.33
2023-02-13T15:58:55.125Z,18.50
2023-02-13T16:01:21.925Z,18.13
2023-02-13T16:03:48.668Z,20.25
2023-02-13T16:06:15.344Z,21.02
2023-02-13T16:08:45.319Z,17.27
2023-02-13T16:11:11.976Z,18.02
2023-02-13T16:13:38.618Z,18.55
2023-02-13T16:16:05.358Z,20.13
2023-02-13T16:18:31.948Z,19.08
2023-02-13T16:20:58.945Z,18.17
2023-02-13T16:23:25.817Z,17.85
2023-02-13T16:25:53.075Z,19.08
2023-02-13T16:28:19.746Z,18.23
2023-02-13T16:30:46.492Z,18.08
2023-02-13T16:33:13.278Z,18.05
2023-02-13T16:35:39.938Z,21.90
2023-02-13T16:38:06.642Z,16.88
2023-02-13T16:40:33.783Z,20.08
2023-02-13T16:43:00.421Z,15.98
2023-02-13T16:45:27.154Z,20.80
2023-02-13T16:47:53.793Z,18.30
2023-02-13T16:50:20.554Z,16.33
2023-02-13T16:52:47.201Z,16.33
2023-02-13T16:55:14.034Z,19.75
2023-02-13T16:57:41.897Z,16.85
2023-02-13T17:00:09.804Z,18.90
2023-02-13T17:02:40.996Z,17.85
2023-02-13T17:05:11.314Z,18.40
2023-02-13T17:07:37.992Z,19.40
2023-02-13T17:10:04.716Z,22.48
2023-02-13T17:12:31.499Z,14.40
2023-02-13T17:14:58.943Z,19.20
2023-02-13T17:17:26.056Z,20.77
2023-02-13T17:19:53.395Z,21.13
2023-02-13T17:22:20.626Z,19.02
2023-02-13T17:24:47.289Z,18.88
2023-02-13T17:27:14.548Z,16.13
2023-02-13T17:29:41.236Z,19.10
2023-02-13T17:32:08.409Z,18.58
2023-02-13T17:34:35.637Z,20.40
2023-02-13T17:37:02.790Z,23.67
2023-02-13T17:39:29.986Z,21.88
2023-02-13T17:41:57.192Z,20.65
2023-02-13T17:44:24.382Z,23.77
2023-02-13T17:46:51.521Z,22.80
2023-02-13T17:49:18.783Z,20.10
2023-02-13T17:51:46.137Z,23.10
2023-02-13T17:54:13.466Z,19.38
2023-02-13T17:56:40.695Z,18.98
2023-02-13T17:59:07.877Z,19.33
2023-02-13T18:01:35.065Z,19.45
2023-02-13T18:04:02.286Z,17.20
2023-02-13T18:06:29.462Z,21.55
2023-02-13T18:08:56.619Z,20.67
2023-02-13T18:11:23.836Z,21.48
2023-02-13T18:13:51.051Z,21.75
2023-02-13T18:16:18.420Z,20.70
2023-02-13T18:18:45.662Z,21.98
2023-02-13T18:21:13.653Z,22.67
2023-02-13T18:23:40.323Z,18.60
2023-02-13T18:26:06.973Z,19.27
2023-02-13T18:28:33.672Z,23.65
2023-02-13T18:31:00.832Z,21.85
2023-02-13T18:33:27.856Z,20.75
2023-02-13T18:36:00.003Z,20.88
2023-02-13T18:38:26.678Z,22.20
2023-02-13T18:40:53.522Z,20.85
2023-02-13T18:43:22.632Z,20.92
2023-02-13T18:45:49.383Z,22.05
2023-02-13T18:48:16.104Z,23.95
2023-02-13T18:50:42.752Z,25.50
2023-02-13T18:53:09.419Z,25.52
2023-02-13T18:55:37.262Z,24.17
2023-02-13T18:58:04.194Z,25.65
2023-02-13T19:00:30.814Z,24.17
2023-02-13T19:02:59.496Z,26.27
2023-02-13T19:05:26.174Z,25.42
2023-02-13T19:07:53.971Z,25.17
2023-02-13T19:10:20.696Z,23.80
2023-02-13T19:12:47.417Z,22.08
2023-02-13T19:15:14.121Z,22.38
2023-02-13T19:17:43.271Z,25.58
2023-02-13T19:20:10.045Z,26.77
2023-02-13T19:22:36.794Z,23.70
2023-02-13T19:25:05.919Z,24.20
2023-02-13T19:27:35.027Z,28.08
2023-02-13T19:30:01.760Z,26.83
2023-02-13T19:32:28.566Z,26.83
2023-02-13T19:34:57.068Z,27.67
2023-02-13T19:37:25.342Z,21.50
2023-02-13T19:39:53.702Z,28.55
2023-02-13T19:42:22.740Z,25.20
2023-02-13T19:44:49.415Z,24.35
2023-02-13T19:47:16.113Z,25.48
2023-02-13T19:49:48.556Z,24.95
2023-02-13T19:52:15.278Z,22.02
2023-02-13T19:54:42.009Z,25.13
2023-02-13T19:57:10.645Z,26.55
2023-02-13T19:59:37.282Z,26.33
2023-02-13T20:02:08.354Z,25.67
2023-02-13T20:04:41.540Z,28.80
2023-02-13T20:07:08.264Z,29.15
2023-02-13T20:09:38.012Z,24.73
2023-02-13T20:12:04.697Z,25.88
2023-02-13T20:14:33.843Z,22.50
2023-02-13T20:17:00.622Z,25.52
2023-02-13T20:19:28.285Z,24.48
2023-02-13T20:21:55.011Z,23.85
2023-02-13T20:24:21.800Z,26.85
2023-02-13T20:26:48.713Z,25.52
2023-02-13T20:29:15.915Z,27.65
2023-02-13T20:31:42.786Z,21.52
2023-02-13T20:34:10.038Z,26.88
2023-02-13T20:36:36.702Z,23.45
2023-02-13T20:39:03.390Z,22.75
2023-02-13T20:41:30.076Z,24.98
2023-02-13T20:43:56.739Z,27.23
2023-02-13T20:46:23.380Z,24.75
2023-02-13T20:48:50.293Z,23.75
2023-02-13T20:51:18.585Z,25.48
2023-02-13T20:53:45.262Z,24.23
2023-02-13T20:56:12.069Z,20.95
2023-02-13T20:58:38.738Z,25.30
2023-02-13T21:01:05.530Z,20.95
2023-02-13T21:03:32.202Z,25.63
2023-02-13T21:05:58.900Z,26.88
2023-02-13T21:08:25.570Z,21.35
2023-02-13T21:10:52.290Z,24.23
2023-02-13T21:13:18.992Z,26.00
2023-02-13T21:15:48.259Z,25.50
2023-02-13T21:18:15.392Z,24.90
2023-02-13T21:20:42.127Z,25.35
2023-02-13T21:23:08.850Z,23.20
2023-02-13T21:25:35.560Z,23.30
2023-02-13T21:28:02.232Z,24.08
2023-02-13T21:30:28.930Z,22.13
2023-02-13T21:32:55.765Z,24.05
2023-02-13T21:35:22.519Z,27.00
2023-02-13T21:37:49.246Z,27.02
2023-02-13T21:40:19.941Z,22.85
2023-02-13T21:42:46.743Z,25.07
2023-02-13T21:45:16.078Z,24.25
2023-02-13T21:47:44.840Z,26.08
2023-02-13T21:50:11.580Z,21.27
2023-02-13T21:52:39.595Z,21.77
2023-02-13T21:55:07.916Z,23.95
2023-02-13T21:57:35.489Z,28.13
2023-02-13T22:00:04.223Z,21.27
2023-02-13T22:02:34.274Z,25.40
2023-02-13T22:05:01.185Z,24.00
2023-02-13T22:07:27.886Z,21.70
2023-02-13T22:09:54.715Z,20.92
2023-02-13T22:12:21.520Z,22.50
2023-02-13T22:14:50.697Z,22.98
2023-02-13T22:17:17.500Z,20.35
2023-02-13T22:19:44.333Z,26.92
2023-02-13T22:22:15.899Z,24.92
2023-02-13T22:27:09.372Z,25.35
2023-02-13T22:29:37.063Z,18.77
2023-02-13T22:32:03.920Z,27.48
2023-02-13T22:34:30.724Z,22.23
2023-02-13T22:36:57.385Z,24.60
2023-02-13T22:39:24.189Z,21.90
2023-02-13T22:41:50.978Z,20.77
2023-02-13T22:44:17.618Z,24.15
2023-02-13T22:46:45.470Z,24.67
2023-02-13T22:49:16.795Z,23.55
2023-02-13T22:51:43.626Z,23.73
2023-02-13T22:54:10.367Z,25.52
2023-02-13T22:56:37.093Z,25.08
2023-02-13T22:59:03.837Z,27.20
2023-02-13T23:01:34.497Z,23.55
2023-02-13T23:04:01.252Z,26.27
2023-02-13T23:06:28.594Z,20.88
2023-02-13T23:08:55.297Z,25.67
2023-02-13T23:11:40.891Z,24.15
2023-02-13T23:14:07.538Z,21.75
2023-02-13T23:16:54.129Z,21.80
2023-02-13T23:19:20.799Z,23.27
2023-02-13T23:21:47.519Z,24.98
2023-02-13T23:24:14.162Z,27.42
2023-02-13T23:26:40.869Z,24.83
2023-02-13T23:29:07.527Z,23.02
2023-02-13T23:31:34.333Z,22.27
2023-02-13T23:34:01.134Z,27.15
2023-02-13T23:36:27.829Z,26.23
2023-02-13T23:38:54.474Z,26.15
2023-02-13T23:41:21.186Z,22.77
2023-02-13T23:43:47.776Z,25.88
2023-02-13T23:46:14.472Z,21.50
2023-02-13T23:48:41.077Z,20.63
2023-02-13T23:51:07.689Z,23.10
2023-02-13T23:53:34.298Z,26.98
2023-02-13T23:56:00.937Z,23.70
2023-02-13T23:58:27.599Z,24.15
